Time;durP1;ratioP1;P1;durP2;ratioP2;P2;SDS_P1;SDS_P2;PMS_P1;PMS_P2;Temp;Humidity;BMP_temperature;BMP_pressure;BME280_temperature;BME280_humidity;BME280_pressure;Samples;Min_cycle;Max_cycle;Signal;HPM_P1;HPM_P2
2021/09/01 00:01:59;;;;;;;9.80;2.60;;;17.50;72.90;;;;;;5054975;28;20113;-82
2021/09/01 00:04:24;;;;;;;5.85;2.40;;;17.50;72.80;;;;;;5055124;28;20481;-82
2021/09/01 00:06:50;;;;;;;8.70;2.35;;;17.50;72.80;;;;;;5055190;28;20039;-82
2021/09/01 00:09:16;;;;;;;5.97;2.35;;;17.40;72.80;;;;;;5055134;28;20028;-82
2021/09/01 00:11:42;;;;;;;6.72;2.28;;;17.50;72.70;;;;;;5055107;28;20384;-83
2021/09/01 00:14:08;;;;;;;10.10;2.63;;;17.40;72.70;;;;;;5054980;28;20029;-83
2021/09/01 00:16:33;;;;;;;6.00;2.60;;;17.40;72.50;;;;;;5055645;28;20071;-83
2021/09/01 00:19:02;;;;;;;6.22;2.53;;;17.40;72.50;;;;;;5073127;28;20095;-83
2021/09/01 00:21:28;;;;;;;5.57;2.10;;;17.40;72.60;;;;;;5055062;28;20074;-83
2021/09/01 00:27:25;;;;;;;5.72;2.15;;;17.40;72.60;;;;;;5073254;28;20027;-84
2021/09/01 00:29:51;;;;;;;6.03;2.10;;;17.40;72.60;;;;;;5054918;28;20476;-82
2021/09/01 00:32:16;;;;;;;7.45;2.50;;;17.40;72.60;;;;;;5054797;28;20098;-83
2021/09/01 00:34:42;;;;;;;9.50;2.63;;;17.40;72.60;;;;;;5072695;28;20032;-82
2021/09/01 00:37:07;;;;;;;5.45;2.13;;;17.40;72.50;;;;;;5054780;28;20393;-83
2021/09/01 00:39:33;;;;;;;6.05;2.08;;;17.40;72.50;;;;;;5055072;28;20392;-82
2021/09/01 00:42:04;;;;;;;6.75;2.25;;;17.40;72.50;;;;;;5072996;28;20029;-83
2021/09/01 00:44:29;;;;;;;6.32;2.03;;;17.40;72.40;;;;;;5072955;28;20033;-82
2021/09/01 00:46:58;;;;;;;5.10;1.98;;;17.40;72.40;;;;;;5072692;28;20403;-83
2021/09/01 00:49:26;;;;;;;5.20;2.05;;;17.40;72.40;;;;;;5054760;28;20479;-82
2021/09/01 00:51:51;;;;;;;9.77;2.40;;;17.50;72.40;;;;;;5054736;28;20109;-83
2021/09/01 00:54:19;;;;;;;6.55;2.20;;;17.40;72.30;;;;;;5054923;28;20040;-83
2021/09/01 00:56:50;;;;;;;6.10;2.35;;;17.50;72.30;;;;;;5054723;28;20028;-84
2021/09/01 00:59:17;;;;;;;7.00;2.20;;;17.50;72.20;;;;;;5055825;28;20108;-84
2021/09/01 01:01:45;;;;;;;6.10;2.17;;;17.50;72.20;;;;;;5058483;28;20484;-83
2021/09/01 01:04:10;;;;;;;5.60;2.17;;;17.50;72.20;;;;;;5060745;28;20082;-81
2021/09/01 01:06:36;;;;;;;4.50;1.80;;;17.50;72.10;;;;;;5061281;28;20036;-81
2021/09/01 01:12:48;;;;;;;6.68;2.22;;;17.60;72.10;;;;;;5076485;28;20031;-83
2021/09/01 01:15:14;;;;;;;8.18;2.10;;;17.60;72.10;;;;;;5058034;28;20025;-83
2021/09/01 01:17:40;;;;;;;4.40;2.20;;;17.50;72.10;;;;;;5058231;28;20078;-83
2021/09/01 01:20:06;;;;;;;7.75;2.28;;;17.50;72.10;;;;;;5058282;28;20047;-83
2021/09/01 01:22:31;;;;;;;5.32;2.28;;;17.50;72.20;;;;;;5058054;28;20020;-83
2021/09/01 01:24:58;;;;;;;4.88;1.80;;;17.50;72.20;;;;;;5075912;28;20050;-83
2021/09/01 01:27:38;;;;;;;7.22;2.38;;;17.50;72.20;;;;;;5058172;28;20027;-83
2021/09/01 01:30:16;;;;;;;5.10;2.25;;;17.50;72.20;;;;;;5057776;28;20529;-84
2021/09/01 01:32:50;;;;;;;8.10;2.40;;;17.50;72.20;;;;;;5058146;28;20035;-83
2021/09/01 01:35:26;;;;;;;6.30;2.28;;;17.40;72.20;;;;;;5057685;28;20040;-83
2021/09/01 01:37:56;;;;;;;8.05;2.55;;;17.40;72.20;;;;;;5058316;28;20385;-83
2021/09/01 01:40:22;;;;;;;6.40;2.30;;;17.40;72.30;;;;;;5057789;28;20021;-82
2021/09/01 01:42:53;;;;;;;7.53;2.80;;;17.40;72.20;;;;;;5057858;28;20055;-82
2021/09/01 01:45:20;;;;;;;4.90;1.98;;;17.40;72.20;;;;;;5057526;28;20024;-82
2021/09/01 01:47:45;;;;;;;9.02;2.22;;;17.40;72.20;;;;;;5057711;28;20063;-82
2021/09/01 01:50:11;;;;;;;6.10;2.20;;;17.40;72.30;;;;;;5057639;28;20033;-82
2021/09/01 01:52:37;;;;;;;4.85;2.22;;;17.40;72.30;;;;;;5075696;28;20195;-82
2021/09/01 01:55:04;;;;;;;8.23;2.30;;;17.40;72.30;;;;;;5057537;28;20484;-83
2021/09/01 01:57:29;;;;;;;3.58;2.00;;;17.30;72.30;;;;;;5091073;28;20497;-82
2021/09/01 01:59:55;;;;;;;4.93;2.08;;;17.40;72.40;;;;;;5057402;28;20023;-82
2021/09/01 02:02:20;;;;;;;6.50;2.20;;;17.40;72.40;;;;;;5057306;28;20017;-82
2021/09/01 02:04:46;;;;;;;8.63;2.25;;;17.40;72.40;;;;;;5075346;28;20534;-82
2021/09/01 02:07:12;;;;;;;5.45;2.30;;;17.40;72.40;;;;;;5057586;28;20021;-82
2021/09/01 02:09:37;;;;;;;5.85;2.45;;;17.40;72.40;;;;;;5075064;28;20050;-83
2021/09/01 02:12:04;;;;;;;8.45;2.45;;;17.40;72.50;;;;;;5057315;28;20025;-82
2021/09/01 02:14:29;;;;;;;4.30;2.10;;;17.40;72.50;;;;;;5057020;28;20021;-82
2021/09/01 02:16:55;;;;;;;6.38;2.20;;;17.50;72.40;;;;;;5057369;28;20016;-82
2021/09/01 02:19:20;;;;;;;7.10;2.10;;;17.50;72.40;;;;;;5074929;28;20028;-82
2021/09/01 02:21:46;;;;;;;6.95;2.30;;;17.50;72.50;;;;;;5057253;28;20396;-82
2021/09/01 02:24:12;;;;;;;7.45;2.10;;;17.50;72.40;;;;;;5056804;28;20115;-82
2021/09/01 02:26:37;;;;;;;5.70;2.40;;;17.50;72.40;;;;;;5057099;28;20029;-82
2021/09/01 02:29:03;;;;;;;6.20;2.55;;;17.50;73.10;;;;;;5056949;28;20116;-82
2021/09/01 02:31:28;;;;;;;5.32;2.40;;;17.50;72.50;;;;;;5056659;28;20044;-83
2021/09/01 02:33:54;;;;;;;8.18;2.15;;;17.50;72.50;;;;;;5056873;28;20511;-82
2021/09/01 02:36:20;;;;;;;10.35;2.60;;;17.50;72.50;;;;;;5056681;28;20027;-82
2021/09/01 02:42:10;;;;;;;7.93;2.20;;;17.50;72.50;;;;;;5074781;28;20063;-83
2021/09/01 02:44:37;;;;;;;8.02;2.30;;;17.50;72.60;;;;;;5056511;28;20037;-82
2021/09/01 02:47:03;;;;;;;5.43;2.20;;;17.50;72.60;;;;;;5056739;28;20050;-83
2021/09/01 02:49:28;;;;;;;6.88;2.50;;;17.50;72.60;;;;;;5056440;28;20040;-83
2021/09/01 02:51:54;;;;;;;6.68;2.10;;;17.50;72.60;;;;;;5056412;28;20044;-83
2021/09/01 02:54:20;;;;;;;7.35;2.20;;;17.50;72.60;;;;;;5056302;28;20499;-82
2021/09/01 02:56:46;;;;;;;5.85;2.30;;;17.50;72.60;;;;;;5056990;28;20055;-83
2021/09/01 02:59:12;;;;;;;6.00;2.33;;;17.50;72.60;;;;;;5055907;28;20016;-83
2021/09/01 03:01:37;;;;;;;5.80;2.30;;;17.50;72.70;;;;;;5056318;28;20024;-83
2021/09/01 03:04:03;;;;;;;8.25;2.30;;;17.40;72.70;;;;;;5073982;28;20484;-82
2021/09/01 03:06:29;;;;;;;6.32;2.50;;;17.40;72.80;;;;;;5056301;28;20089;-82
2021/09/01 03:08:55;;;;;;;6.07;2.53;;;17.40;72.80;;;;;;5073952;28;20037;-83
2021/09/01 03:14:42;;;;;;;6.85;2.55;;;17.40;72.80;;;;;;5073958;28;20086;-82
2021/09/01 03:17:08;;;;;;;7.15;2.75;;;17.30;72.90;;;;;;5056154;28;20056;-82
2021/09/01 03:19:34;;;;;;;7.50;2.60;;;17.30;72.90;;;;;;5055839;28;20165;-82
2021/09/01 03:21:59;;;;;;;7.70;2.67;;;17.30;72.90;;;;;;5055398;28;20020;-82
2021/09/01 03:24:25;;;;;;;7.15;2.63;;;17.30;72.80;;;;;;5055768;28;20020;-82
2021/09/01 03:26:51;;;;;;;5.95;2.20;;;17.30;72.80;;;;;;5073462;28;20103;-83
2021/09/01 03:29:16;;;;;;;10.45;2.30;;;17.30;72.80;;;;;;5056217;28;20028;-84
2021/09/01 03:31:42;;;;;;;6.85;2.70;;;17.30;72.80;;;;;;5056134;28;20048;-84
2021/09/01 03:34:08;;;;;;;6.68;2.80;;;17.30;72.80;;;;;;5056114;28;20035;-82
2021/09/01 03:36:34;;;;;;;7.07;2.50;;;17.30;72.80;;;;;;5055953;28;20373;-83
2021/09/01 03:38:59;;;;;;;6.25;2.22;;;17.30;72.90;;;;;;5055651;28;20023;-83
2021/09/01 03:41:26;;;;;;;5.15;2.40;;;17.30;72.90;;;;;;5074103;28;20036;-84
2021/09/01 03:43:51;;;;;;;6.72;2.50;;;17.30;72.80;;;;;;5055870;28;20033;-84
2021/09/01 03:46:17;;;;;;;6.30;2.50;;;17.30;72.80;;;;;;5056329;28;20506;-84
2021/09/01 03:48:42;;;;;;;5.95;2.30;;;17.30;72.70;;;;;;5055830;28;20028;-82
2021/09/01 03:51:08;;;;;;;7.25;2.50;;;17.30;73.40;;;;;;5055949;28;20024;-82
2021/09/01 03:53:34;;;;;;;5.97;2.50;;;17.30;72.80;;;;;;5055501;28;20031;-81
2021/09/01 03:56:00;;;;;;;9.13;2.60;;;17.30;72.80;;;;;;5055911;28;20031;-83
2021/09/01 03:58:25;;;;;;;3.92;2.10;;;17.30;72.80;;;;;;5056020;28;20408;-85
2021/09/01 04:00:51;;;;;;;10.02;2.75;;;17.30;72.80;;;;;;5055842;28;20032;-83
2021/09/01 04:03:17;;;;;;;6.55;2.50;;;17.30;72.80;;;;;;5055623;28;20397;-83
2021/09/01 04:05:42;;;;;;;8.57;2.60;;;17.30;72.80;;;;;;5055502;28;20488;-83
2021/09/01 04:08:08;;;;;;;7.65;2.63;;;17.30;72.70;;;;;;5055628;28;20032;-83
2021/09/01 04:10:34;;;;;;;7.22;2.40;;;17.30;72.70;;;;;;5055760;28;20033;-82
2021/09/01 04:13:00;;;;;;;6.32;2.25;;;17.30;72.80;;;;;;5055905;28;20839;-81
2021/09/01 04:15:25;;;;;;;5.75;2.50;;;17.20;72.80;;;;;;5055571;28;20123;-83
2021/09/01 04:17:51;;;;;;;6.85;2.65;;;17.30;72.80;;;;;;5074215;28;20025;-83
2021/09/01 04:20:17;;;;;;;6.95;2.63;;;17.20;72.80;;;;;;5056232;28;20037;-83
2021/09/01 04:22:42;;;;;;;5.80;2.38;;;17.20;72.70;;;;;;5056169;28;20028;-84
2021/09/01 04:25:08;;;;;;;5.70;2.35;;;17.20;73.30;;;;;;5055698;28;20029;-83
2021/09/01 04:27:34;;;;;;;7.32;1.98;;;17.20;72.60;;;;;;5055699;28;20025;-83
2021/09/01 04:30:00;;;;;;;5.45;2.35;;;17.20;72.50;;;;;;5055341;28;20029;-81
2021/09/01 04:32:25;;;;;;;4.70;1.90;;;17.20;72.40;;;;;;5073676;28;20040;-82
2021/09/01 04:34:51;;;;;;;5.65;2.40;;;17.20;72.40;;;;;;5059535;28;20020;-83
2021/09/01 04:37:17;;;;;;;5.68;2.60;;;17.20;72.40;;;;;;5059816;28;20028;-82
2021/09/01 04:39:42;;;;;;;6.50;2.55;;;17.10;72.30;;;;;;5059446;28;20132;-83
2021/09/01 04:42:09;;;;;;;5.20;2.13;;;17.20;72.30;;;;;;5060035;28;20487;-83
2021/09/01 04:44:35;;;;;;;6.68;2.50;;;17.20;72.30;;;;;;5059686;28;20496;-83
2021/09/01 04:47:01;;;;;;;7.18;2.25;;;17.20;72.20;;;;;;5059752;28;20032;-82
2021/09/01 04:49:26;;;;;;;5.90;1.95;;;17.30;72.20;;;;;;5059500;28;20512;-82
2021/09/01 04:51:52;;;;;;;6.97;2.40;;;17.20;72.10;;;;;;5059424;28;20442;-83
2021/09/01 04:54:18;;;;;;;5.90;2.20;;;17.30;72.00;;;;;;5058906;28;20029;-83
2021/09/01 04:56:43;;;;;;;3.90;2.22;;;17.20;71.90;;;;;;5059300;28;20021;-83
2021/09/01 04:59:09;;;;;;;6.13;2.38;;;17.30;71.90;;;;;;5089966;28;20028;-83
2021/09/01 05:01:35;;;;;;;4.85;2.30;;;17.20;71.80;;;;;;5059177;28;20032;-83
2021/09/01 05:04:00;;;;;;;8.15;2.10;;;17.20;71.80;;;;;;5059268;28;20484;-83
2021/09/01 05:06:27;;;;;;;6.82;2.22;;;17.20;71.70;;;;;;5059128;28;20025;-83
2021/09/01 05:08:56;;;;;;;5.18;2.10;;;17.20;71.70;;;;;;5058902;28;20040;-82
2021/09/01 05:11:22;;;;;;;7.45;2.50;;;17.20;71.60;;;;;;5058979;28;20039;-83
2021/09/01 05:13:48;;;;;;;6.25;2.33;;;17.20;71.70;;;;;;5058746;28;20032;-84
2021/09/01 05:16:14;;;;;;;5.10;2.10;;;17.20;71.60;;;;;;5058906;28;20031;-84
2021/09/01 05:18:40;;;;;;;8.50;2.30;;;17.20;71.50;;;;;;5058937;28;20396;-83
2021/09/01 05:21:09;;;;;;;6.80;2.30;;;17.30;71.50;;;;;;5058904;28;20013;-83
2021/09/01 05:23:35;;;;;;;4.63;2.22;;;17.30;71.50;;;;;;5076618;28;20120;-83
2021/09/01 05:26:05;;;;;;;7.60;2.22;;;17.30;71.50;;;;;;5058480;28;20116;-84
2021/09/01 05:28:34;;;;;;;5.13;2.10;;;17.30;71.50;;;;;;5058158;28;20066;-83
2021/09/01 05:31:02;;;;;;;6.53;2.40;;;17.30;71.40;;;;;;5058421;28;20091;-83
2021/09/01 05:33:31;;;;;;;4.35;1.88;;;17.30;71.30;;;;;;5058628;28;20044;-83
2021/09/01 05:35:57;;;;;;;5.07;1.98;;;17.40;71.40;;;;;;5058603;28;20054;-82
2021/09/01 05:38:23;;;;;;;4.35;2.10;;;17.40;71.30;;;;;;5089474;28;20029;-82
2021/09/01 05:40:53;;;;;;;5.28;2.10;;;17.30;71.20;;;;;;5076172;28;20054;-83
2021/09/01 05:43:20;;;;;;;6.53;2.10;;;17.40;71.20;;;;;;5058376;28;20031;-83
2021/09/01 05:45:47;;;;;;;8.25;2.35;;;17.40;71.20;;;;;;5057306;28;20025;-83
2021/09/01 05:48:13;;;;;;;4.93;2.20;;;17.30;71.10;;;;;;5058464;28;20044;-83
2021/09/01 05:50:44;;;;;;;4.95;2.28;;;17.30;71.10;;;;;;5058235;28;20017;-83
2021/09/01 05:53:10;;;;;;;6.95;1.90;;;17.30;71.00;;;;;;5058185;28;20434;-82
2021/09/01 05:55:41;;;;;;;5.07;2.30;;;17.40;71.10;;;;;;5058234;28;20028;-82
2021/09/01 05:58:15;;;;;;;5.10;2.10;;;17.40;71.10;;;;;;5075667;28;20029;-82
2021/09/01 06:00:41;;;;;;;7.97;2.13;;;17.40;70.90;;;;;;5058390;28;20028;-82
2021/09/01 06:06:29;;;;;;;4.55;2.03;;;17.30;70.60;;;;;;5075866;28;20035;-82
2021/09/01 06:09:00;;;;;;;6.63;2.08;;;17.30;70.60;;;;;;5075668;28;20028;-82
2021/09/01 06:11:27;;;;;;;6.10;1.95;;;17.20;70.50;;;;;;5058466;28;20029;-82
2021/09/01 06:13:52;;;;;;;5.78;2.10;;;17.20;70.50;;;;;;5054621;28;20032;-83
2021/09/01 06:16:18;;;;;;;3.92;1.95;;;17.30;70.40;;;;;;5057692;28;20424;-83
2021/09/01 06:18:44;;;;;;;4.78;1.75;;;17.30;70.40;;;;;;5057261;28;20034;-82
2021/09/01 06:21:09;;;;;;;3.78;1.77;;;17.30;70.20;;;;;;5057641;28;20060;-83
2021/09/01 06:23:35;;;;;;;5.28;2.03;;;17.30;70.20;;;;;;5057225;28;20389;-82
2021/09/01 06:26:02;;;;;;;4.05;2.00;;;17.40;70.10;;;;;;5057256;28;20025;-83
2021/09/01 06:28:28;;;;;;;5.20;1.98;;;17.40;70.00;;;;;;5057706;28;20074;-83
2021/09/01 06:30:54;;;;;;;3.65;1.90;;;17.40;69.90;;;;;;5057365;28;20519;-83
2021/09/01 06:33:54;;;;;;;5.50;2.08;;;17.40;69.70;;;;;;5057716;28;20028;-83
2021/09/01 06:36:19;;;;;;;6.40;2.45;;;17.40;69.60;;;;;;5057740;28;20047;-82
2021/09/01 06:38:45;;;;;;;6.07;2.08;;;17.40;69.60;;;;;;5057590;28;20029;-82
2021/09/01 06:41:11;;;;;;;3.92;2.00;;;17.50;69.70;;;;;;5057432;28;20032;-82
2021/09/01 06:43:36;;;;;;;3.72;1.70;;;17.50;69.70;;;;;;5074810;28;20024;-83
2021/09/01 06:46:02;;;;;;;3.95;1.70;;;17.50;69.80;;;;;;5057152;28;20499;-83
2021/09/01 06:48:27;;;;;;;4.10;1.88;;;17.50;69.80;;;;;;5056850;28;20116;-83
2021/09/01 06:50:53;;;;;;;5.88;2.20;;;17.50;69.80;;;;;;5057030;28;20029;-83
2021/09/01 06:53:22;;;;;;;4.00;1.90;;;17.50;69.80;;;;;;5057435;28;20028;-83
2021/09/01 06:55:47;;;;;;;7.85;2.03;;;17.50;69.80;;;;;;5056951;28;20033;-83
2021/09/01 06:58:18;;;;;;;4.35;2.20;;;17.50;69.80;;;;;;5056127;28;20606;-83
2021/09/01 07:00:47;;;;;;;4.57;2.20;;;17.50;69.80;;;;;;5056830;28;20037;-82
2021/09/01 07:03:13;;;;;;;6.25;1.90;;;17.50;69.90;;;;;;5056489;28;20020;-83
2021/09/01 07:05:39;;;;;;;6.13;1.90;;;17.50;69.90;;;;;;5056592;28;20032;-83
2021/09/01 07:08:23;;;;;;;4.97;2.00;;;17.50;69.90;;;;;;5056775;28;20514;-83
2021/09/01 07:10:50;;;;;;;3.60;1.90;;;17.50;69.90;;;;;;5056461;28;20020;-83
2021/09/01 07:13:16;;;;;;;4.65;2.10;;;17.60;69.90;;;;;;5087390;28;20051;-83
2021/09/01 07:15:43;;;;;;;3.25;1.80;;;17.60;69.90;;;;;;5056658;28;20082;-82
2021/09/01 07:18:09;;;;;;;5.40;1.98;;;17.60;69.90;;;;;;5056688;28;20020;-83
2021/09/01 07:20:35;;;;;;;4.28;2.00;;;17.70;69.90;;;;;;5056119;28;20028;-83
2021/09/01 07:23:01;;;;;;;6.88;2.13;;;17.70;69.80;;;;;;5056139;28;20373;-82
2021/09/01 07:25:27;;;;;;;5.80;2.28;;;17.80;69.60;;;;;;5056431;28;20060;-83
2021/09/01 07:27:52;;;;;;;7.97;1.80;;;17.80;69.30;;;;;;5056090;28;20024;-84
2021/09/01 07:30:18;;;;;;;5.47;2.10;;;17.90;69.20;;;;;;5048756;28;20481;-82
2021/09/01 07:32:44;;;;;;;5.75;2.22;;;17.90;69.00;;;;;;5034018;28;20440;-83
2021/09/01 07:35:10;;;;;;;3.88;1.70;;;18.00;68.90;;;;;;5034074;28;20030;-82
2021/09/01 07:37:48;;;;;;;6.22;2.22;;;18.00;68.90;;;;;;5032843;28;20500;-81
2021/09/01 07:40:15;;;;;;;4.88;2.10;;;18.00;68.70;;;;;;5032963;28;20034;-83
2021/09/01 07:42:43;;;;;;;4.72;1.85;;;18.10;68.70;;;;;;5066283;28;20435;-82
2021/09/01 07:45:10;;;;;;;6.45;2.20;;;18.10;68.50;;;;;;5032568;28;20515;-82
2021/09/01 07:48:22;;;;;;;3.17;1.70;;;18.20;68.50;;;;;;5065923;28;20033;-82
2021/09/01 07:50:51;;;;;;;4.70;2.05;;;18.30;68.30;;;;;;5065868;28;20036;-81
2021/09/01 07:53:16;;;;;;;5.93;2.08;;;18.40;68.30;;;;;;5032591;28;20092;-83
2021/09/01 07:55:42;;;;;;;3.85;1.92;;;18.40;68.20;;;;;;5033176;28;20037;-83
2021/09/01 07:58:09;;;;;;;5.35;2.00;;;18.40;68.10;;;;;;5065513;28;20465;-83
2021/09/01 08:00:36;;;;;;;4.20;1.83;;;18.40;68.10;;;;;;5065585;28;20481;-83
2021/09/01 08:03:02;;;;;;;3.92;2.03;;;18.40;68.10;;;;;;5065404;28;20021;-83
2021/09/01 08:05:27;;;;;;;5.50;2.28;;;18.40;68.10;;;;;;5065147;28;20056;-83
2021/09/01 08:07:53;;;;;;;5.82;2.55;;;18.40;68.00;;;;;;5032144;28;20032;-83
2021/09/01 08:10:19;;;;;;;6.10;2.10;;;18.40;67.90;;;;;;5033056;28;20319;-83
2021/09/01 08:12:44;;;;;;;5.70;2.28;;;18.50;68.00;;;;;;5033709;28;20430;-85
2021/09/01 08:15:11;;;;;;;6.00;2.30;;;18.50;67.90;;;;;;5065830;28;20032;-84
2021/09/01 08:17:37;;;;;;;5.50;2.20;;;18.60;67.90;;;;;;5064988;28;20018;-82
2021/09/01 08:20:03;;;;;;;3.75;1.90;;;18.70;67.80;;;;;;5065088;28;20026;-82
2021/09/01 08:22:29;;;;;;;5.43;1.92;;;18.70;67.70;;;;;;5065181;28;20464;-83
2021/09/01 08:24:55;;;;;;;5.28;2.00;;;18.70;67.60;;;;;;5064951;28;20022;-83
2021/09/01 08:27:20;;;;;;;8.13;1.90;;;18.80;67.60;;;;;;5065384;28;20087;-83
2021/09/01 08:29:46;;;;;;;7.18;2.17;;;18.80;67.50;;;;;;5065082;28;20029;-82
2021/09/01 08:32:12;;;;;;;5.93;1.98;;;18.80;67.50;;;;;;5065583;28;20053;-81
2021/09/01 08:34:37;;;;;;;4.85;2.25;;;18.80;67.50;;;;;;5032467;28;20079;-85
2021/09/01 08:37:04;;;;;;;3.25;1.75;;;18.90;67.70;;;;;;5066077;28;20055;-83
2021/09/01 08:39:30;;;;;;;6.00;2.15;;;18.90;67.50;;;;;;5062633;28;20129;-83
2021/09/01 08:41:56;;;;;;;4.88;2.13;;;18.90;67.30;;;;;;5065752;28;20041;-81
2021/09/01 08:44:25;;;;;;;4.25;1.95;;;18.90;67.20;;;;;;5033364;28;20034;-83
2021/09/01 08:46:51;;;;;;;5.82;1.85;;;18.90;67.10;;;;;;5067757;28;20026;-83
2021/09/01 08:52:38;;;;;;;6.57;2.30;;;19.00;67.10;;;;;;5034838;28;20036;-83
2021/09/01 08:55:14;;;;;;;5.13;2.40;;;19.00;67.00;;;;;;5066251;28;20029;-83
2021/09/01 08:57:41;;;;;;;6.65;2.33;;;19.00;66.70;;;;;;5034366;28;20033;-83
2021/09/01 09:00:09;;;;;;;5.00;2.13;;;19.00;66.80;;;;;;5066406;28;20033;-84
2021/09/01 09:02:34;;;;;;;5.53;2.25;;;19.00;66.70;;;;;;5033159;28;20033;-83
2021/09/01 09:05:06;;;;;;;3.13;1.75;;;19.10;66.60;;;;;;5032713;28;20029;-85
2021/09/01 09:07:54;;;;;;;5.05;2.08;;;19.20;66.40;;;;;;5033916;28;20108;-81
2021/09/01 09:10:37;;;;;;;5.88;1.98;;;19.20;66.30;;;;;;5031692;28;20052;-82
2021/09/01 09:13:33;;;;;;;4.30;1.88;;;19.30;66.10;;;;;;5032603;28;20032;-82
2021/09/01 09:16:06;;;;;;;5.22;1.80;;;19.40;65.90;;;;;;5030436;28;20042;-83
2021/09/01 09:18:31;;;;;;;4.15;1.75;;;19.50;65.80;;;;;;5064630;28;20026;-81
2021/09/01 09:21:11;;;;;;;4.35;1.88;;;19.50;65.70;;;;;;5067070;28;20026;-83
2021/09/01 09:23:36;;;;;;;5.00;1.70;;;19.60;65.70;;;;;;5068047;28;20464;-81
2021/09/01 09:26:25;;;;;;;3.00;1.88;;;19.70;65.60;;;;;;5067907;28;20025;-82
2021/09/01 09:29:11;;;;;;;5.88;2.00;;;19.70;65.30;;;;;;5034620;28;20086;-81
2021/09/01 09:31:38;;;;;;;3.65;2.00;;;19.80;65.30;;;;;;5065927;28;20065;-82
2021/09/01 09:34:15;;;;;;;5.63;1.85;;;19.90;65.10;;;;;;5057834;28;20115;-82
2021/09/01 09:37:05;;;;;;;3.15;1.77;;;19.90;64.90;;;;;;5075901;28;20511;-83
2021/09/01 09:39:46;;;;;;;4.68;1.77;;;19.90;64.70;;;;;;5091407;28;20495;-82
2021/09/01 09:42:27;;;;;;;5.05;2.10;;;19.90;64.50;;;;;;5058618;28;20028;-83
2021/09/01 09:44:52;;;;;;;4.38;1.73;;;19.90;64.60;;;;;;5075932;28;20029;-82
2021/09/01 09:47:18;;;;;;;6.72;2.22;;;19.90;64.50;;;;;;5057984;28;20036;-84
2021/09/01 09:49:44;;;;;;;5.47;2.22;;;20.00;64.30;;;;;;5058511;28;20029;-84
2021/09/01 09:52:14;;;;;;;3.72;1.75;;;20.00;63.90;;;;;;5058055;28;20029;-83
2021/09/01 09:54:40;;;;;;;3.30;1.70;;;19.90;64.00;;;;;;5057611;28;20051;-82
2021/09/01 09:57:09;;;;;;;4.55;1.90;;;20.00;64.10;;;;;;5058022;28;20548;-83
2021/09/01 09:59:35;;;;;;;5.93;1.85;;;20.00;64.10;;;;;;5075852;28;20436;-82
2021/09/01 10:02:01;;;;;;;6.38;2.20;;;20.10;64.00;;;;;;5058142;28;20028;-85
2021/09/01 10:04:28;;;;;;;5.55;2.10;;;20.00;63.70;;;;;;5058075;28;20495;-83
2021/09/01 10:06:54;;;;;;;3.25;1.73;;;20.00;63.60;;;;;;5057768;28;20027;-82
2021/09/01 10:09:20;;;;;;;6.60;2.00;;;20.10;63.80;;;;;;5057606;28;20032;-82
2021/09/01 10:11:50;;;;;;;6.43;2.20;;;20.20;63.60;;;;;;5057857;28;20033;-82
2021/09/01 10:14:19;;;;;;;7.18;2.30;;;20.30;63.40;;;;;;5057725;28;20029;-81
2021/09/01 10:16:57;;;;;;;4.78;1.90;;;20.30;63.30;;;;;;5058093;28;20438;-82
2021/09/01 10:19:27;;;;;;;4.30;1.98;;;20.30;63.30;;;;;;5073940;28;20108;-82
2021/09/01 10:21:58;;;;;;;4.22;2.00;;;20.40;63.40;;;;;;5075391;28;20059;-83
2021/09/01 10:24:28;;;;;;;5.25;1.90;;;20.40;63.20;;;;;;5075634;28;20066;-84
2021/09/01 10:27:28;;;;;;;4.65;2.00;;;20.50;63.30;;;;;;5076059;28;20393;-83
2021/09/01 10:30:08;;;;;;;5.15;2.08;;;20.50;63.20;;;;;;5054563;28;20386;-83
2021/09/01 10:32:47;;;;;;;5.38;1.90;;;20.40;63.30;;;;;;5057940;28;20400;-85
2021/09/01 10:35:16;;;;;;;4.45;1.90;;;20.40;63.40;;;;;;5091647;28;20476;-82
2021/09/01 10:37:55;;;;;;;6.47;2.10;;;20.40;63.50;;;;;;5057995;28;20513;-83
2021/09/01 10:40:20;;;;;;;2.95;2.00;;;20.30;63.40;;;;;;5057754;28;20029;-84
2021/09/01 10:42:47;;;;;;;5.22;1.95;;;20.20;63.50;;;;;;5075516;28;20025;-84
2021/09/01 10:45:19;;;;;;;2.85;1.80;;;20.20;63.60;;;;;;5072433;28;20037;-85
2021/09/01 10:47:51;;;;;;;3.55;2.00;;;20.20;63.80;;;;;;5090617;28;20036;-84
2021/09/01 10:50:18;;;;;;;6.72;2.53;;;20.10;63.80;;;;;;5057992;28;20117;-84
2021/09/01 10:53:25;;;;;;;5.15;2.58;;;20.10;64.00;;;;;;5057403;28;20032;-84
2021/09/01 10:56:00;;;;;;;4.38;2.28;;;20.10;63.80;;;;;;5057948;28;20032;-83
2021/09/01 10:58:37;;;;;;;5.85;2.20;;;20.00;63.90;;;;;;5075161;28;20023;-82
2021/09/01 11:01:06;;;;;;;5.32;2.00;;;20.00;64.10;;;;;;5057271;28;20542;-83
2021/09/01 11:03:40;;;;;;;5.60;1.92;;;19.90;64.00;;;;;;5056846;28;20036;-82
2021/09/01 11:06:14;;;;;;;6.22;2.53;;;19.90;64.00;;;;;;5090712;28;20285;-83
2021/09/01 11:09:12;;;;;;;4.05;2.10;;;20.00;63.80;;;;;;5056756;28;20052;-83
2021/09/01 11:11:50;;;;;;;3.90;1.85;;;20.10;63.80;;;;;;5057003;28;20060;-82
2021/09/01 11:14:38;;;;;;;6.20;1.88;;;20.20;63.60;;;;;;5056666;28;20024;-83
2021/09/01 11:17:07;;;;;;;6.22;2.00;;;20.20;63.60;;;;;;5056865;28;20074;-83
2021/09/01 11:19:33;;;;;;;2.40;1.70;;;20.30;63.50;;;;;;5056706;28;20037;-83
2021/09/01 11:22:07;;;;;;;2.67;1.80;;;20.40;63.30;;;;;;5056740;28;20028;-83
2021/09/01 11:28:02;;;;;;;5.05;1.90;;;20.60;63.00;;;;;;5074507;28;20050;-83
2021/09/01 11:30:32;;;;;;;3.08;1.67;;;20.80;62.70;;;;;;5056229;28;20063;-83
2021/09/01 11:33:00;;;;;;;4.25;2.30;;;20.80;62.70;;;;;;5055950;28;20047;-84
2021/09/01 11:35:29;;;;;;;6.25;2.15;;;20.90;62.30;;;;;;5056011;28;20094;-83
2021/09/01 11:38:09;;;;;;;5.22;1.92;;;20.90;62.20;;;;;;5056114;28;20126;-82
2021/09/01 11:40:37;;;;;;;3.50;1.77;;;20.90;62.10;;;;;;5056230;28;20484;-83
2021/09/01 11:46:36;;;;;;;3.95;1.42;;;20.90;62.00;;;;;;5073754;28;20034;-82
2021/09/01 11:49:13;;;;;;;3.45;1.60;;;20.90;61.80;;;;;;5073450;28;20027;-83
2021/09/01 11:51:42;;;;;;;5.97;1.75;;;20.80;61.90;;;;;;5055637;28;20020;-82
2021/09/01 11:54:09;;;;;;;4.00;2.05;;;20.80;61.90;;;;;;5055116;28;20028;-83
2021/09/01 11:56:35;;;;;;;4.63;2.08;;;20.60;61.90;;;;;;5055519;28;20051;-83
2021/09/01 11:59:09;;;;;;;6.45;2.10;;;20.50;62.10;;;;;;5055013;28;20052;-83
2021/09/01 12:01:42;;;;;;;;;;;20.40;62.30;;;;;;5055900;28;20016;-83
2021/09/01 12:04:08;;;;;;;5.60;2.20;;;20.40;62.70;;;;;;5055121;28;19908;-83
2021/09/01 12:06:45;;;;;;;4.28;2.00;;;20.30;62.90;;;;;;5055498;28;20021;-83
2021/09/01 12:09:14;;;;;;;3.90;2.17;;;20.30;62.90;;;;;;5073284;28;20032;-83
2021/09/01 12:11:48;;;;;;;5.82;2.20;;;20.30;63.00;;;;;;5054971;28;20213;-83
2021/09/01 12:14:16;;;;;;;7.72;1.90;;;20.30;63.20;;;;;;5073077;28;20107;-83
2021/09/01 12:16:42;;;;;;;6.00;2.20;;;20.20;63.30;;;;;;5055201;28;20040;-84
2021/09/01 12:19:11;;;;;;;3.25;2.40;;;20.30;63.40;;;;;;5072869;28;20024;-83
2021/09/01 12:21:52;;;;;;;4.18;1.77;;;20.40;63.40;;;;;;5055407;28;20112;-84
2021/09/01 12:24:24;;;;;;;3.63;1.67;;;20.40;63.30;;;;;;5054981;28;20119;-84
2021/09/01 12:26:55;;;;;;;2.15;1.60;;;20.40;63.20;;;;;;5055257;28;20024;-84
2021/09/01 12:29:26;;;;;;;5.20;2.10;;;20.40;63.00;;;;;;5072901;28;20025;-84
2021/09/01 12:31:53;;;;;;;4.07;1.70;;;20.50;63.00;;;;;;5034820;28;20061;-83
2021/09/01 12:34:29;;;;;;;6.38;2.00;;;20.40;62.90;;;;;;5064516;28;20030;-83
2021/09/01 12:37:00;;;;;;;3.47;1.67;;;20.40;63.00;;;;;;5032977;28;20022;-84
2021/09/01 12:39:25;;;;;;;4.05;1.92;;;20.40;62.90;;;;;;5064879;28;20056;-83
2021/09/01 12:41:51;;;;;;;5.70;1.92;;;20.50;62.90;;;;;;5064956;28;20121;-83
2021/09/01 12:44:17;;;;;;;4.88;2.13;;;20.50;62.80;;;;;;5065081;28;20021;-84
2021/09/01 12:46:43;;;;;;;3.47;1.92;;;20.60;62.80;;;;;;5033373;28;20025;-84
2021/09/01 12:49:25;;;;;;;2.63;1.70;;;20.70;62.70;;;;;;5031995;28;20032;-84
2021/09/01 12:51:51;;;;;;;4.72;2.25;;;20.80;62.50;;;;;;5065815;28;20048;-85
2021/09/01 12:54:21;;;;;;;4.93;1.95;;;21.00;62.60;;;;;;5065568;28;20126;-82
2021/09/01 12:56:49;;;;;;;2.97;1.77;;;21.10;62.40;;;;;;5038976;28;20097;-87
2021/09/01 12:59:14;;;;;;;4.35;1.80;;;21.20;62.30;;;;;;5073274;28;20028;-81
2021/09/01 13:01:40;;;;;;;3.88;1.98;;;21.30;62.10;;;;;;5044680;28;20026;-82
2021/09/01 13:04:06;;;;;;;3.97;1.88;;;21.40;61.80;;;;;;5047855;28;20033;-85
2021/09/01 13:06:32;;;;;;;3.25;1.77;;;21.40;61.50;;;;;;5074000;28;20040;-83
2021/09/01 13:08:58;;;;;;;3.38;2.00;;;21.30;61.30;;;;;;5073857;28;20030;-85
2021/09/01 13:11:23;;;;;;;4.38;1.80;;;21.30;61.30;;;;;;5072167;28;20083;-88
2021/09/01 13:13:49;;;;;;;2.92;1.80;;;21.40;61.50;;;;;;5074078;28;20036;-85
2021/09/01 13:16:15;;;;;;;3.83;1.88;;;21.30;61.30;;;;;;5069210;28;20036;-84
2021/09/01 13:18:44;;;;;;;4.60;2.00;;;21.30;61.20;;;;;;5068847;28;20021;-85
2021/09/01 13:21:10;;;;;;;3.88;1.88;;;21.30;61.20;;;;;;5069722;28;20017;-85
2021/09/01 13:23:36;;;;;;;4.05;1.67;;;21.30;61.10;;;;;;5069629;28;20014;-85